Mount Gambier, Australia
Current Conditions -  °F | °C
As of 8:00 PM on Friday 19 Dec 2014 (Local Time) from YMTG Reporting Station
Overcast Overcast  
Wind Chill: 59°   Ceiling: 3400
Heat Index: 59°   Visibility: 6mi
Dew Point: 46°   Wind: 9mph
Humidity: 63%   Direction: 240°WSW
Pressure: 30.12"   Gusts: NA
Location:  37.83°S, 140.78°E
Report Text: YMTG 191000Z AUTO 24008KT 9999 // OVC034 15/08 Q1020
Loading
Personal Weather Stations






























Interactive Weather Map New forecast layout! Learn more

10-Day Weather Forecast

Advertisements
Track Severe Weather on mobile